sensor_id;sensor_type;location;lat;lon;timestamp;temperature;humidity
5647;DHT22;2845;48.626;9.362;2022-10-16T00:00:12;15.80;99.90
5647;DHT22;2845;48.626;9.362;2022-10-16T00:02:47;15.10;99.90
5647;DHT22;2845;48.626;9.362;2022-10-16T00:09:15;15.20;99.90
5647;DHT22;2845;48.626;9.362;2022-10-16T00:19:05;14.90;99.90
5647;DHT22;2845;48.626;9.362;2022-10-16T00:21:40;14.80;99.90
5647;DHT22;2845;48.626;9.362;2022-10-16T00:24:15;14.70;99.90
5647;DHT22;2845;48.626;9.362;2022-10-16T00:26:50;16.10;99.90
5647;DHT22;2845;48.626;9.362;2022-10-16T00:29:25;16.40;99.90
5647;DHT22;2845;48.626;9.362;2022-10-16T00:31:59;16.70;99.90
5647;DHT22;2845;48.626;9.362;2022-10-16T00:34:40;15.40;99.90
5647;DHT22;2845;48.626;9.362;2022-10-16T00:37:17;14.70;99.90
5647;DHT22;2845;48.626;9.362;2022-10-16T00:47:42;14.60;99.90
5647;DHT22;2845;48.626;9.362;2022-10-16T00:50:24;14.60;99.90
5647;DHT22;2845;48.626;9.362;2022-10-16T00:56:57;14.50;99.90
5647;DHT22;2845;48.626;9.362;2022-10-16T00:59:35;14.80;99.90
5647;DHT22;2845;48.626;9.362;2022-10-16T01:10:13;14.30;99.90
5647;DHT22;2845;48.626;9.362;2022-10-16T01:12:54;15.30;99.90
5647;DHT22;2845;48.626;9.362;2022-10-16T01:15:32;15.40;99.90
5647;DHT22;2845;48.626;9.362;2022-10-16T01:21:22;14.20;99.90
5647;DHT22;2845;48.626;9.362;2022-10-16T01:24:06;15.70;99.90
5647;DHT22;2845;48.626;9.362;2022-10-16T01:26:50;14.20;99.90
5647;DHT22;2845;48.626;9.362;2022-10-16T01:29:46;14.20;99.90
5647;DHT22;2845;48.626;9.362;2022-10-16T01:32:27;17.20;99.90
5647;DHT22;2845;48.626;9.362;2022-10-16T01:35:08;14.20;99.90
5647;DHT22;2845;48.626;9.362;2022-10-16T01:37:45;14.40;99.90
5647;DHT22;2845;48.626;9.362;2022-10-16T01:44:15;14.10;99.90
5647;DHT22;2845;48.626;9.362;2022-10-16T01:57:42;13.90;99.90
5647;DHT22;2845;48.626;9.362;2022-10-16T02:00:23;14.00;99.90
5647;DHT22;2845;48.626;9.362;2022-10-16T02:03:00;14.00;99.90
5647;DHT22;2845;48.626;9.362;2022-10-16T02:08:53;14.00;99.90
5647;DHT22;2845;48.626;9.362;2022-10-16T02:11:31;14.00;99.90
5647;DHT22;2845;48.626;9.362;2022-10-16T02:20:31;14.00;99.90
5647;DHT22;2845;48.626;9.362;2022-10-16T02:26:12;14.00;99.90
5647;DHT22;2845;48.626;9.362;2022-10-16T02:28:51;14.00;99.90
5647;DHT22;2845;48.626;9.362;2022-10-16T02:31:31;17.30;99.90
5647;DHT22;2845;48.626;9.362;2022-10-16T02:34:14;14.20;99.90
5647;DHT22;2845;48.626;9.362;2022-10-16T02:36:50;14.10;99.90
5647;DHT22;2845;48.626;9.362;2022-10-16T02:47:13;14.00;99.90
5647;DHT22;2845;48.626;9.362;2022-10-16T02:57:54;14.20;99.90
5647;DHT22;2845;48.626;9.362;2022-10-16T03:08:25;14.10;99.90
5647;DHT22;2845;48.626;9.362;2022-10-16T03:14:48;14.10;99.90
5647;DHT22;2845;48.626;9.362;2022-10-16T03:17:23;14.00;99.90
5647;DHT22;2845;48.626;9.362;2022-10-16T03:19:58;16.70;99.90
5647;DHT22;2845;48.626;9.362;2022-10-16T03:22:32;13.90;99.90
5647;DHT22;2845;48.626;9.362;2022-10-16T03:29:00;14.00;99.90
5647;DHT22;2845;48.626;9.362;2022-10-16T03:31:37;13.90;99.90
5647;DHT22;2845;48.626;9.362;2022-10-16T03:34:12;14.40;99.90
5647;DHT22;2845;48.626;9.362;2022-10-16T03:40:00;13.80;99.90
5647;DHT22;2845;48.626;9.362;2022-10-16T03:42:53;13.80;99.90
5647;DHT22;2845;48.626;9.362;2022-10-16T03:45:29;13.90;99.90
5647;DHT22;2845;48.626;9.362;2022-10-16T03:48:05;16.40;99.90
5647;DHT22;2845;48.626;9.362;2022-10-16T03:50:40;16.30;99.90
5647;DHT22;2845;48.626;9.362;2022-10-16T03:53:15;13.90;99.90
5647;DHT22;2845;48.626;9.362;2022-10-16T03:56:05;13.90;99.90
5647;DHT22;2845;48.626;9.362;2022-10-16T03:58:42;13.80;99.90
5647;DHT22;2845;48.626;9.362;2022-10-16T04:08:24;13.90;99.90
5647;DHT22;2845;48.626;9.362;2022-10-16T04:11:12;13.80;99.90
5647;DHT22;2845;48.626;9.362;2022-10-16T04:13:54;13.90;99.90
5647;DHT22;2845;48.626;9.362;2022-10-16T04:20:15;13.80;99.90
5647;DHT22;2845;48.626;9.362;2022-10-16T04:23:00;13.80;99.90
5647;DHT22;2845;48.626;9.362;2022-10-16T04:29:29;13.70;99.90
5647;DHT22;2845;48.626;9.362;2022-10-16T04:32:07;13.70;99.90
5647;DHT22;2845;48.626;9.362;2022-10-16T04:34:42;14.20;99.90
5647;DHT22;2845;48.626;9.362;2022-10-16T04:37:16;13.70;99.90
5647;DHT22;2845;48.626;9.362;2022-10-16T04:40:25;15.90;99.90
5647;DHT22;2845;48.626;9.362;2022-10-16T04:43:12;13.80;99.90
5647;DHT22;2845;48.626;9.362;2022-10-16T04:45:46;15.90;99.90
5647;DHT22;2845;48.626;9.362;2022-10-16T04:48:23;13.60;99.90
5647;DHT22;2845;48.626;9.362;2022-10-16T04:50:58;16.30;99.90
5647;DHT22;2845;48.626;9.362;2022-10-16T04:53:33;16.90;99.90
5647;DHT22;2845;48.626;9.362;2022-10-16T05:03:49;13.60;99.90
5647;DHT22;2845;48.626;9.362;2022-10-16T05:06:30;13.60;99.90
5647;DHT22;2845;48.626;9.362;2022-10-16T05:09:06;13.60;99.90
5647;DHT22;2845;48.626;9.362;2022-10-16T05:15:10;13.50;99.90
5647;DHT22;2845;48.626;9.362;2022-10-16T05:17:44;14.40;99.90
5647;DHT22;2845;48.626;9.362;2022-10-16T05:20:20;13.60;99.90
5647;DHT22;2845;48.626;9.362;2022-10-16T05:22:55;14.40;99.90
5647;DHT22;2845;48.626;9.362;2022-10-16T05:25:29;16.80;99.90
5647;DHT22;2845;48.626;9.362;2022-10-16T05:28:03;15.30;99.90
5647;DHT22;2845;48.626;9.362;2022-10-16T05:30:38;15.00;99.90
5647;DHT22;2845;48.626;9.362;2022-10-16T05:33:12;16.30;99.90
5647;DHT22;2845;48.626;9.362;2022-10-16T05:35:48;15.10;99.90
5647;DHT22;2845;48.626;9.362;2022-10-16T05:38:23;16.10;99.90
5647;DHT22;2845;48.626;9.362;2022-10-16T05:40:57;16.20;99.90
5647;DHT22;2845;48.626;9.362;2022-10-16T05:47:24;13.40;99.90
5647;DHT22;2845;48.626;9.362;2022-10-16T05:57:02;13.40;99.90
5647;DHT22;2845;48.626;9.362;2022-10-16T05:59:39;13.40;99.90
5647;DHT22;2845;48.626;9.362;2022-10-16T06:02:15;16.20;99.90
5647;DHT22;2845;48.626;9.362;2022-10-16T06:04:51;16.10;99.90
5647;DHT22;2845;48.626;9.362;2022-10-16T06:07:25;15.40;99.90
5647;DHT22;2845;48.626;9.362;2022-10-16T06:10:08;15.70;99.90
5647;DHT22;2845;48.626;9.362;2022-10-16T06:12:43;13.30;99.90
5647;DHT22;2845;48.626;9.362;2022-10-16T06:22:16;13.40;99.90
5647;DHT22;2845;48.626;9.362;2022-10-16T06:24:51;16.20;99.90
5647;DHT22;2845;48.626;9.362;2022-10-16T06:27:28;13.60;99.90
5647;DHT22;2845;48.626;9.362;2022-10-16T06:30:06;15.30;99.90
5647;DHT22;2845;48.626;9.362;2022-10-16T06:32:51;13.60;99.90
5647;DHT22;2845;48.626;9.362;2022-10-16T06:35:52;16.90;99.90
5647;DHT22;2845;48.626;9.362;2022-10-16T06:38:41;16.30;99.90
5647;DHT22;2845;48.626;9.362;2022-10-16T06:41:30;14.10;99.90
5647;DHT22;2845;48.626;9.362;2022-10-16T06:44:29;13.70;99.90
5647;DHT22;2845;48.626;9.362;2022-10-16T06:47:06;13.90;99.90
5647;DHT22;2845;48.626;9.362;2022-10-16T06:52:50;14.20;99.90
5647;DHT22;2845;48.626;9.362;2022-10-16T06:55:38;15.10;99.90
5647;DHT22;2845;48.626;9.362;2022-10-16T06:58:17;17.50;99.90
5647;DHT22;2845;48.626;9.362;2022-10-16T07:00:57;14.30;99.90
5647;DHT22;2845;48.626;9.362;2022-10-16T07:03:47;14.40;99.90
5647;DHT22;2845;48.626;9.362;2022-10-16T07:06:24;16.60;99.90
5647;DHT22;2845;48.626;9.362;2022-10-16T07:09:23;14.90;99.90
5647;DHT22;2845;48.626;9.362;2022-10-16T07:12:06;14.80;99.90
5647;DHT22;2845;48.626;9.362;2022-10-16T07:14:41;14.80;99.90
5647;DHT22;2845;48.626;9.362;2022-10-16T07:17:19;16.80;99.90
5647;DHT22;2845;48.626;9.362;2022-10-16T07:19:56;14.90;99.90
5647;DHT22;2845;48.626;9.362;2022-10-16T07:22:42;15.70;99.90
5647;DHT22;2845;48.626;9.362;2022-10-16T07:25:17;15.10;99.90
5647;DHT22;2845;48.626;9.362;2022-10-16T07:35:01;15.10;99.90
5647;DHT22;2845;48.626;9.362;2022-10-16T07:44:55;15.30;99.90
5647;DHT22;2845;48.626;9.362;2022-10-16T07:47:36;15.30;99.90
5647;DHT22;2845;48.626;9.362;2022-10-16T07:50:14;15.40;99.90
5647;DHT22;2845;48.626;9.362;2022-10-16T07:52:54;15.50;99.90
5647;DHT22;2845;48.626;9.362;2022-10-16T07:55:29;15.60;99.90
5647;DHT22;2845;48.626;9.362;2022-10-16T07:58:05;15.50;99.90
5647;DHT22;2845;48.626;9.362;2022-10-16T08:03:58;15.80;99.90
5647;DHT22;2845;48.626;9.362;2022-10-16T08:10:34;15.80;99.90
5647;DHT22;2845;48.626;9.362;2022-10-16T08:16:06;15.90;99.90
5647;DHT22;2845;48.626;9.362;2022-10-16T08:18:42;15.90;99.90
5647;DHT22;2845;48.626;9.362;2022-10-16T08:21:18;18.60;99.90
5647;DHT22;2845;48.626;9.362;2022-10-16T08:23:56;18.20;99.90
5647;DHT22;2845;48.626;9.362;2022-10-16T08:26:31;17.60;99.90
5647;DHT22;2845;48.626;9.362;2022-10-16T08:33:18;16.30;99.90
5647;DHT22;2845;48.626;9.362;2022-10-16T08:46:18;16.70;99.90
5647;DHT22;2845;48.626;9.362;2022-10-16T08:48:58;16.90;99.90
5647;DHT22;2845;48.626;9.362;2022-10-16T08:51:36;17.10;99.90
5647;DHT22;2845;48.626;9.362;2022-10-16T08:54:20;17.30;99.90
5647;DHT22;2845;48.626;9.362;2022-10-16T08:57:00;17.40;99.90
5647;DHT22;2845;48.626;9.362;2022-10-16T08:59:48;20.10;99.90
5647;DHT22;2845;48.626;9.362;2022-10-16T09:02:26;17.60;99.90
5647;DHT22;2845;48.626;9.362;2022-10-16T09:08:01;17.60;99.90
5647;DHT22;2845;48.626;9.362;2022-10-16T09:10:46;17.70;99.90
5647;DHT22;2845;48.626;9.362;2022-10-16T09:13:26;19.10;99.90
5647;DHT22;2845;48.626;9.362;2022-10-16T09:16:04;17.80;99.90
5647;DHT22;2845;48.626;9.362;2022-10-16T09:18:51;17.80;99.90
5647;DHT22;2845;48.626;9.362;2022-10-16T09:21:36;18.40;99.90
5647;DHT22;2845;48.626;9.362;2022-10-16T09:27:28;18.00;99.90
5647;DHT22;2845;48.626;9.362;2022-10-16T09:30:09;18.10;99.90
5647;DHT22;2845;48.626;9.362;2022-10-16T09:32:49;20.40;99.90
5647;DHT22;2845;48.626;9.362;2022-10-16T09:35:33;18.40;99.90
5647;DHT22;2845;48.626;9.362;2022-10-16T09:38:20;18.50;99.90
5647;DHT22;2845;48.626;9.362;2022-10-16T09:40:58;18.90;99.80
5647;DHT22;2845;48.626;9.362;2022-10-16T09:43:36;18.80;99.60
5647;DHT22;2845;48.626;9.362;2022-10-16T09:46:22;18.70;99.10
5647;DHT22;2845;48.626;9.362;2022-10-16T09:53:08;19.20;99.10
5647;DHT22;2845;48.626;9.362;2022-10-16T09:55:52;19.10;99.00
5647;DHT22;2845;48.626;9.362;2022-10-16T09:58:30;19.70;99.30
5647;DHT22;2845;48.626;9.362;2022-10-16T10:04:53;19.20;99.30
5647;DHT22;2845;48.626;9.362;2022-10-16T10:07:30;20.60;99.40
5647;DHT22;2845;48.626;9.362;2022-10-16T10:14:06;19.40;99.00
5647;DHT22;2845;48.626;9.362;2022-10-16T10:16:49;19.30;99.00
5647;DHT22;2845;48.626;9.362;2022-10-16T10:19:26;19.20;98.90
5647;DHT22;2845;48.626;9.362;2022-10-16T10:22:16;19.20;99.10
5647;DHT22;2845;48.626;9.362;2022-10-16T10:25:00;20.20;99.60
5647;DHT22;2845;48.626;9.362;2022-10-16T10:27:53;19.40;99.10
5647;DHT22;2845;48.626;9.362;2022-10-16T10:34:35;19.90;98.50
5647;DHT22;2845;48.626;9.362;2022-10-16T10:40:44;20.20;97.80
5647;DHT22;2845;48.626;9.362;2022-10-16T10:43:35;20.00;98.00
5647;DHT22;2845;48.626;9.362;2022-10-16T10:46:18;19.90;98.10
5647;DHT22;2845;48.626;9.362;2022-10-16T10:48:59;19.80;98.50
5647;DHT22;2845;48.626;9.362;2022-10-16T10:55:26;19.60;98.50
5647;DHT22;2845;48.626;9.362;2022-10-16T10:58:18;19.60;98.30
5647;DHT22;2845;48.626;9.362;2022-10-16T11:01:08;19.30;98.70
5647;DHT22;2845;48.626;9.362;2022-10-16T11:03:58;20.60;98.70
5647;DHT22;2845;48.626;9.362;2022-10-16T11:13:47;20.40;98.30
5647;DHT22;2845;48.626;9.362;2022-10-16T11:20:02;20.40;97.80
5647;DHT22;2845;48.626;9.362;2022-10-16T11:22:39;20.60;97.20
5647;DHT22;2845;48.626;9.362;2022-10-16T11:25:19;21.20;97.40
5647;DHT22;2845;48.626;9.362;2022-10-16T11:28:00;21.00;98.20
5647;DHT22;2845;48.626;9.362;2022-10-16T11:37:39;20.40;97.70
5647;DHT22;2845;48.626;9.362;2022-10-16T11:44:40;21.00;96.70
5647;DHT22;2845;48.626;9.362;2022-10-16T11:47:44;21.30;96.10
5647;DHT22;2845;48.626;9.362;2022-10-16T11:50:38;21.40;96.00
5647;DHT22;2845;48.626;9.362;2022-10-16T11:57:09;21.50;95.50
5647;DHT22;2845;48.626;9.362;2022-10-16T11:59:48;21.50;95.00
5647;DHT22;2845;48.626;9.362;2022-10-16T12:02:28;21.60;95.30
5647;DHT22;2845;48.626;9.362;2022-10-16T12:12:55;23.90;96.30
5647;DHT22;2845;48.626;9.362;2022-10-16T12:15:32;21.00;95.90
5647;DHT22;2845;48.626;9.362;2022-10-16T12:18:30;22.70;96.20
5647;DHT22;2845;48.626;9.362;2022-10-16T12:24:43;20.90;95.60
5647;DHT22;2845;48.626;9.362;2022-10-16T12:27:26;21.50;95.00
5647;DHT22;2845;48.626;9.362;2022-10-16T12:34:02;21.00;95.40
5647;DHT22;2845;48.626;9.362;2022-10-16T12:36:42;21.30;94.30
5647;DHT22;2845;48.626;9.362;2022-10-16T12:39:20;21.40;95.10
5647;DHT22;2845;48.626;9.362;2022-10-16T12:42:02;22.00;94.50
5647;DHT22;2845;48.626;9.362;2022-10-16T12:44:42;21.20;95.20
5647;DHT22;2845;48.626;9.362;2022-10-16T12:47:37;21.20;94.80
5647;DHT22;2845;48.626;9.362;2022-10-16T12:50:27;21.20;94.40
5647;DHT22;2845;48.626;9.362;2022-10-16T12:53:16;21.30;94.80
5647;DHT22;2845;48.626;9.362;2022-10-16T12:56:09;22.30;95.20
5647;DHT22;2845;48.626;9.362;2022-10-16T13:20:20;21.90;93.80
5647;DHT22;2845;48.626;9.362;2022-10-16T13:23:02;22.30;93.10
5647;DHT22;2845;48.626;9.362;2022-10-16T13:26:04;23.40;93.50
5647;DHT22;2845;48.626;9.362;2022-10-16T13:32:25;22.10;93.30
5647;DHT22;2845;48.626;9.362;2022-10-16T14:12:11;22.10;93.50
5647;DHT22;2845;48.626;9.362;2022-10-16T14:22:34;22.50;92.60
5647;DHT22;2845;48.626;9.362;2022-10-16T14:29:13;22.40;93.50
5647;DHT22;2845;48.626;9.362;2022-10-16T14:35:58;22.20;92.70
5647;DHT22;2845;48.626;9.362;2022-10-16T14:42:34;22.30;92.50
5647;DHT22;2845;48.626;9.362;2022-10-16T14:49:04;24.30;95.00
5647;DHT22;2845;48.626;9.362;2022-10-16T14:55:56;21.80;94.90
5647;DHT22;2845;48.626;9.362;2022-10-16T15:02:29;21.60;95.60
5647;DHT22;2845;48.626;9.362;2022-10-16T15:08:58;21.90;94.90
5647;DHT22;2845;48.626;9.362;2022-10-16T15:16:00;21.80;95.70
5647;DHT22;2845;48.626;9.362;2022-10-16T15:26:12;21.70;95.40
5647;DHT22;2845;48.626;9.362;2022-10-16T15:46:30;21.10;96.20
5647;DHT22;2845;48.626;9.362;2022-10-16T15:49:12;21.00;96.50
5647;DHT22;2845;48.626;9.362;2022-10-16T15:52:00;21.00;96.50
5647;DHT22;2845;48.626;9.362;2022-10-16T15:54:42;20.80;96.40
5647;DHT22;2845;48.626;9.362;2022-10-16T15:57:39;20.80;96.70
5647;DHT22;2845;48.626;9.362;2022-10-16T16:00:36;20.60;96.90
5647;DHT22;2845;48.626;9.362;2022-10-16T16:10:07;20.30;98.10
5647;DHT22;2845;48.626;9.362;2022-10-16T16:16:07;20.00;98.40
5647;DHT22;2845;48.626;9.362;2022-10-16T16:19:00;19.90;98.50
5647;DHT22;2845;48.626;9.362;2022-10-16T16:25:36;19.60;98.80
5647;DHT22;2845;48.626;9.362;2022-10-16T16:49:57;18.60;99.90
5647;DHT22;2845;48.626;9.362;2022-10-16T16:56:25;18.40;99.90
5647;DHT22;2845;48.626;9.362;2022-10-16T17:06:59;17.80;99.90
5647;DHT22;2845;48.626;9.362;2022-10-16T17:09:42;17.70;99.90
5647;DHT22;2845;48.626;9.362;2022-10-16T17:12:19;17.60;99.90
5647;DHT22;2845;48.626;9.362;2022-10-16T17:14:54;17.60;99.90
5647;DHT22;2845;48.626;9.362;2022-10-16T17:17:29;17.60;99.90
5647;DHT22;2845;48.626;9.362;2022-10-16T17:20:04;19.70;99.90
5647;DHT22;2845;48.626;9.362;2022-10-16T17:26:36;17.40;99.90
5647;DHT22;2845;48.626;9.362;2022-10-16T17:29:24;19.40;99.90
5647;DHT22;2845;48.626;9.362;2022-10-16T17:43:50;17.00;99.90
5647;DHT22;2845;48.626;9.362;2022-10-16T17:50:12;16.80;99.90
5647;DHT22;2845;48.626;9.362;2022-10-16T18:04:04;16.60;99.90
5647;DHT22;2845;48.626;9.362;2022-10-16T18:06:54;18.10;99.90
5647;DHT22;2845;48.626;9.362;2022-10-16T18:13:22;16.30;99.90
5647;DHT22;2845;48.626;9.362;2022-10-16T18:25:47;16.00;99.90
5647;DHT22;2845;48.626;9.362;2022-10-16T18:31:30;15.90;99.90
5647;DHT22;2845;48.626;9.362;2022-10-16T18:38:05;15.80;99.90
5647;DHT22;2845;48.626;9.362;2022-10-16T18:47:06;15.60;99.90
5647;DHT22;2845;48.626;9.362;2022-10-16T18:50:06;15.90;99.90
5647;DHT22;2845;48.626;9.362;2022-10-16T18:52:46;15.40;99.90
5647;DHT22;2845;48.626;9.362;2022-10-16T18:55:22;15.40;99.90
5647;DHT22;2845;48.626;9.362;2022-10-16T18:58:07;16.60;99.90
5647;DHT22;2845;48.626;9.362;2022-10-16T19:00:54;15.30;99.90
5647;DHT22;2845;48.626;9.362;2022-10-16T19:06:50;15.20;99.90
5647;DHT22;2845;48.626;9.362;2022-10-16T19:09:27;17.30;99.90
5647;DHT22;2845;48.626;9.362;2022-10-16T19:12:03;15.10;99.90
5647;DHT22;2845;48.626;9.362;2022-10-16T19:14:39;15.10;99.90
5647;DHT22;2845;48.626;9.362;2022-10-16T19:17:30;15.00;99.90
5647;DHT22;2845;48.626;9.362;2022-10-16T19:20:18;15.10;99.90
5647;DHT22;2845;48.626;9.362;2022-10-16T19:23:06;15.00;99.90
5647;DHT22;2845;48.626;9.362;2022-10-16T19:25:41;14.90;99.90
5647;DHT22;2845;48.626;9.362;2022-10-16T19:28:17;16.70;99.90
5647;DHT22;2845;48.626;9.362;2022-10-16T19:30:53;16.50;99.90
5647;DHT22;2845;48.626;9.362;2022-10-16T19:33:30;18.00;99.90
5647;DHT22;2845;48.626;9.362;2022-10-16T19:36:31;14.70;99.90
5647;DHT22;2845;48.626;9.362;2022-10-16T19:39:10;14.80;99.90
5647;DHT22;2845;48.626;9.362;2022-10-16T19:41:46;17.90;99.90
5647;DHT22;2845;48.626;9.362;2022-10-16T19:44:26;14.70;99.90
5647;DHT22;2845;48.626;9.362;2022-10-16T19:47:03;14.50;99.90
5647;DHT22;2845;48.626;9.362;2022-10-16T19:49:38;14.30;99.90
5647;DHT22;2845;48.626;9.362;2022-10-16T19:52:30;15.60;99.90
5647;DHT22;2845;48.626;9.362;2022-10-16T19:55:06;14.50;99.90
5647;DHT22;2845;48.626;9.362;2022-10-16T19:57:42;14.30;99.90
5647;DHT22;2845;48.626;9.362;2022-10-16T20:00:22;14.20;99.90
5647;DHT22;2845;48.626;9.362;2022-10-16T20:02:58;16.00;99.90
5647;DHT22;2845;48.626;9.362;2022-10-16T20:05:48;15.70;99.90
5647;DHT22;2845;48.626;9.362;2022-10-16T20:08:28;14.00;99.90
5647;DHT22;2845;48.626;9.362;2022-10-16T20:11:03;16.20;99.90
5647;DHT22;2845;48.626;9.362;2022-10-16T20:14:00;13.90;99.90
5647;DHT22;2845;48.626;9.362;2022-10-16T20:16:54;14.00;99.90
5647;DHT22;2845;48.626;9.362;2022-10-16T20:19:31;14.00;99.90
5647;DHT22;2845;48.626;9.362;2022-10-16T20:22:06;16.50;99.90
5647;DHT22;2845;48.626;9.362;2022-10-16T20:24:43;15.60;99.90
5647;DHT22;2845;48.626;9.362;2022-10-16T20:27:18;13.90;99.90
5647;DHT22;2845;48.626;9.362;2022-10-16T20:29:53;13.90;99.90
5647;DHT22;2845;48.626;9.362;2022-10-16T20:35:35;13.80;99.90
5647;DHT22;2845;48.626;9.362;2022-10-16T20:41:07;13.90;99.90
5647;DHT22;2845;48.626;9.362;2022-10-16T20:57:57;16.30;99.90
5647;DHT22;2845;48.626;9.362;2022-10-16T21:00:37;15.80;99.90
5647;DHT22;2845;48.626;9.362;2022-10-16T21:03:14;13.60;99.90
5647;DHT22;2845;48.626;9.362;2022-10-16T21:05:55;14.80;99.90
5647;DHT22;2845;48.626;9.362;2022-10-16T21:08:34;13.40;99.90
5647;DHT22;2845;48.626;9.362;2022-10-16T21:14:11;13.40;99.90
5647;DHT22;2845;48.626;9.362;2022-10-16T21:29:02;13.30;99.90
5647;DHT22;2845;48.626;9.362;2022-10-16T21:31:38;13.30;99.90
5647;DHT22;2845;48.626;9.362;2022-10-16T21:34:13;14.90;99.90
5647;DHT22;2845;48.626;9.362;2022-10-16T21:36:49;13.10;99.90
5647;DHT22;2845;48.626;9.362;2022-10-16T21:39:25;13.20;99.90
5647;DHT22;2845;48.626;9.362;2022-10-16T21:45:02;13.10;99.90
5647;DHT22;2845;48.626;9.362;2022-10-16T21:55:13;12.90;99.90
5647;DHT22;2845;48.626;9.362;2022-10-16T21:57:50;12.90;99.90
5647;DHT22;2845;48.626;9.362;2022-10-16T22:00:31;13.00;99.90
5647;DHT22;2845;48.626;9.362;2022-10-16T22:03:07;12.80;99.90
5647;DHT22;2845;48.626;9.362;2022-10-16T22:05:46;12.90;99.90
5647;DHT22;2845;48.626;9.362;2022-10-16T22:08:25;16.00;99.90
5647;DHT22;2845;48.626;9.362;2022-10-16T22:11:07;12.80;99.90
5647;DHT22;2845;48.626;9.362;2022-10-16T22:17:07;12.60;99.90
5647;DHT22;2845;48.626;9.362;2022-10-16T22:19:44;12.70;99.90
5647;DHT22;2845;48.626;9.362;2022-10-16T22:22:20;11.30;99.90
5647;DHT22;2845;48.626;9.362;2022-10-16T22:25:01;12.70;99.90
5647;DHT22;2845;48.626;9.362;2022-10-16T22:27:36;12.50;99.90
5647;DHT22;2845;48.626;9.362;2022-10-16T22:30:12;16.10;99.90
5647;DHT22;2845;48.626;9.362;2022-10-16T22:33:03;14.20;99.90
5647;DHT22;2845;48.626;9.362;2022-10-16T22:35:39;12.60;99.90
5647;DHT22;2845;48.626;9.362;2022-10-16T22:38:19;15.20;99.90
5647;DHT22;2845;48.626;9.362;2022-10-16T22:41:01;12.50;99.90
5647;DHT22;2845;48.626;9.362;2022-10-16T22:43:37;12.50;99.90
5647;DHT22;2845;48.626;9.362;2022-10-16T22:46:19;12.60;99.90
5647;DHT22;2845;48.626;9.362;2022-10-16T22:52:13;12.40;99.90
5647;DHT22;2845;48.626;9.362;2022-10-16T22:55:07;12.40;99.90
5647;DHT22;2845;48.626;9.362;2022-10-16T22:57:43;12.30;99.90
5647;DHT22;2845;48.626;9.362;2022-10-16T23:03:19;12.20;99.90
5647;DHT22;2845;48.626;9.362;2022-10-16T23:12:19;12.10;99.90
5647;DHT22;2845;48.626;9.362;2022-10-16T23:15:07;12.10;99.90
5647;DHT22;2845;48.626;9.362;2022-10-16T23:17:48;12.00;99.90
5647;DHT22;2845;48.626;9.362;2022-10-16T23:20:25;12.10;99.90
5647;DHT22;2845;48.626;9.362;2022-10-16T23:25:55;14.40;99.90
5647;DHT22;2845;48.626;9.362;2022-10-16T23:28:30;12.10;99.90
5647;DHT22;2845;48.626;9.362;2022-10-16T23:31:07;14.20;99.90
5647;DHT22;2845;48.626;9.362;2022-10-16T23:33:44;12.10;99.90
5647;DHT22;2845;48.626;9.362;2022-10-16T23:46:08;11.90;99.90
5647;DHT22;2845;48.626;9.362;2022-10-16T23:48:43;11.90;99.90
5647;DHT22;2845;48.626;9.362;2022-10-16T23:54:25;11.80;99.90
